Station: Borrona Downs  

  Atmospheric Gas Attenuation - ITU Rec 676-11   ----------------- dB/100km -----------------
Date Time Temp RH % AH g/m3 Dew Point Wind Direction Speed kph Gust kph Barometer mB Rainfall Since 9am 24GHz 47GHz 76GHz 122GHz 134GHz 241GHz
08/05 12:30 16.5 45 6.32 4.5 1013.1 0 14.6 21.7 30.0 78.4 67.2 229.5
08/05 12:20 16.5 45 6.32 4.5 1013.1 0 14.6 21.7 30.0 78.4 67.2 229.5
08/05 12:10 16.2 45 6.21 4.5 1013.1 0 14.4 21.6 29.7 77.6 66.2 225.9
08/05 12:00 15.7 47 6.29 4.4 1013.1 0 14.6 21.9 30.2 78.9 67.5 230.6
08/05 11:50 15.4 48 6.31 4.4 1013.1 0 14.7 22.0 30.4 79.4 68.0 232.3
08/05 11:40 15.5 49 6.48 4.8 1013.1 0 15.0 22.2 31.0 80.9 70.0 239.0
08/05 11:30 15.3 49 6.4 4.7 1013.1 0 14.8 22.1 30.8 80.3 69.2 236.3
08/05 11:20 14.9 48 6.12 4 1013.1 0 14.3 21.8 29.9 78.0 66.2 225.8
08/05 11:10 15.2 47 6.1 4.2 1013.1 0 14.2 21.7 29.7 77.5 65.7 224.1
08/05 11:00 15 48 6.15 4.1 1013.1 0 14.3 21.8 30.0 78.2 66.5 226.7
08/05 10:50 14.9 48 6.12 4 1013.1 0 14.3 21.8 29.9 78.0 66.2 225.8
08/05 10:40 14.5 49 6.09 3.9 1013.1 0 14.2 21.8 29.9 78.1 66.2 225.6
08/05 10:30 14.6 49 6.13 4 1013.1 0 14.3 21.9 30.0 78.4 66.6 227.0
08/05 10:20 14.4 49 6.06 3.8 1013.1 0 14.2 21.8 29.9 77.9 65.9 224.7
08/05 10:10 14.3 50 6.14 4 1013.1 0 14.3 22.0 30.2 78.8 66.9 228.3
08/05 10:00 14.1 50 6.07 3.8 1013.1 0 14.2 21.9 30.0 78.3 66.3 225.9
08/05 09:50 13.9 51 6.11 3.9 1013.1 0 14.3 22.0 30.2 78.9 66.9 228.2
08/05 09:40 13.5 51 5.97 3.5 1013.1 0 14.0 21.9 29.9 77.9 65.6 223.4
08/05 09:30 13.2 52 5.97 3.6 1013.1 0 14.0 22.0 30.0 78.2 65.8 224.2
08/05 09:20 13 51 5.78 3.3 1013.1 0 13.6 21.7 29.4 76.6 63.7 216.8
08/05 09:10 12.4 51 5.57 2.5 1013.1 0 13.2 21.6 28.8 75.1 61.7 209.5
08/05 09:00 12 52 5.54 2.5 1013.1 0 13.1 21.6 28.9 75.2 61.6 209.3
08/05 08:50 11.6 52 5.41 2.1 1013.1 0 12.9 21.5 28.5 74.3 60.4 204.8
08/05 08:40 11.1 53 5.34 1.9 1013.1 0 12.7 21.6 28.4 74.1 59.9 203.1
08/05 08:30 10.7 55 5.4 2 1013.1 0 12.9 21.7 28.8 75.0 60.9 206.7
08/05 08:20 10.4 56 5.4 2 1013.1 0 12.9 21.8 28.9 75.3 61.2 207.5
08/05 08:10 9.6 57 5.22 1.5 1013.1 0 12.5 21.7 28.5 74.3 59.6 201.8
08/05 08:00 8.6 62 5.33 1.7 1013.1 0 12.8 22.1 29.3 76.3 61.7 209.1
08/05 07:50 7.8 66 5.39 1.8 1013.1 0 13.0 22.4 29.8 77.7 63.1 213.9
08/05 07:40 7.2 69 5.42 1.9 1013.1 0 13.1 22.6 30.1 78.6 63.9 216.8
08/05 07:30 6.4 72 5.37 1.7 1013.1 0 13.0 22.7 30.3 78.9 64.0 216.8
08/05 07:20 6 74 5.37 1.7 1013.1 0 13.0 22.8 30.4 79.3 64.3 217.9
08/05 07:10 5.8 74 5.3 1.5 1013.1 0 12.8 22.8 30.2 78.7 63.5 215.3
08/05 07:00 5.9 73 5.27 1.4 1013.1 0 12.8 22.7 30.1 78.3 63.1 213.6
08/05 06:50 5.9 73 5.27 1.4 1013.1 0 12.8 22.7 30.1 78.3 63.1 213.6
08/05 06:40 5.7 74 5.27 1.4 1013.1 0 12.8 22.8 30.1 78.5 63.2 214.2
08/05 06:30 5.4 76 5.31 1.5 1013.1 0 12.9 22.9 30.4 79.3 64.0 216.8
08/05 06:20 5.4 75 5.24 1.3 1013.1 0 12.7 22.8 30.1 78.5 63.1 213.6
08/05 06:10 5.4 75 5.24 1.3 1013.1 0 12.7 22.8 30.1 78.5 63.1 213.6
08/05 06:00 5.4 75 5.24 1.3 1013.1 0 12.7 22.8 30.1 78.5 63.1 213.6
08/05 05:50 5.4 76 5.31 1.5 1013.1 0 12.9 22.9 30.4 79.3 64.0 216.8
08/05 05:40 5.5 75 5.27 1.4 1013.1 0 12.8 22.8 30.2 78.7 63.4 214.7
08/05 05:30 5.7 75 5.34 1.6 1013.1 0 12.9 22.9 30.4 79.3 64.1 217.3
08/05 05:20 5.9 73 5.27 1.4 1013.1 0 12.8 22.7 30.1 78.3 63.1 213.6
08/05 05:10 6.1 71 5.19 1.2 1013.1 0 12.6 22.5 29.7 77.3 61.9 209.5
08/05 05:00 6.3 70 5.18 1.2 1013.1 0 12.6 22.5 29.6 77.0 61.6 208.5
08/05 04:50 6.5 69 5.18 1.2 1013.1 0 12.6 22.4 29.5 76.8 61.5 208.0
08/05 04:40 6.5 68 5.1 1 1013.1 0 12.4 22.3 29.2 76.0 60.4 204.4
08/05 04:30 6.7 68 5.17 1.2 1013.1 0 12.5 22.4 29.4 76.5 61.2 207.0
08/05 04:20 6.7 67 5.09 1 1013.1 0 12.4 22.2 29.1 75.7 60.2 203.5
08/05 04:10 6.7 68 5.17 1.2 1013.1 0 12.5 22.4 29.4 76.5 61.2 207.0
08/05 04:00 6.7 68 5.17 1.2 1013.1 0 12.5 22.4 29.4 76.5 61.2 207.0
08/05 03:50 6.9 66 5.08 1 1013.1 0 12.3 22.2 29.0 75.4 59.9 202.5
08/05 03:40 7 66 5.12 1.1 1013.1 0 12.4 22.2 29.1 75.7 60.3 204.0
08/05 03:30 7.1 64 4.99 0.8 1013.1 0 12.1 22.0 28.5 74.3 58.6 198.0
08/05 03:20 7.3 63 4.98 0.7 1013.1 0 12.1 21.9 28.4 74.0 58.3 197.1
08/05 03:10 7.4 62 4.93 0.6 1013.1 0 12.0 21.8 28.2 73.4 57.6 194.7
08/05 03:00 7.6 61 4.92 0.6 1013.1 0 12.0 21.8 28.1 73.1 57.4 193.8
08/05 02:50 7.7 60 4.87 0.4 1013.1 0 11.9 21.7 27.9 72.5 56.7 191.3
08/05 02:40 8 58 4.8 0.2 1013.1 0 11.7 21.5 27.5 71.6 55.6 187.6
08/05 02:30 8.1 58 4.83 0.3 1013.1 0 11.8 21.5 27.6 71.8 55.9 188.7
08/05 02:20 7.8 59 4.82 0.3 1013.1 0 11.8 21.6 27.7 72.0 56.0 188.9
08/05 02:10 7.8 59 4.82 0.3 1013.1 0 11.8 21.6 27.7 72.0 56.0 188.9
08/05 02:00 7.8 58 4.74 0.1 1013.1 0 11.6 21.4 27.4 71.2 55.0 185.5
08/05 01:50 8.3 55 4.64 -0.2 1013.1 0 11.4 21.2 26.8 69.7 53.4 180.1
08/05 01:40 8.6 53 4.56 -0.5 1013.1 0 11.2 21.0 26.4 68.7 52.3 176.0
08/05 01:30 8.8 51 4.44 -0.8 1013.1 0 10.9 20.8 25.9 67.4 50.7 170.5
08/05 01:20 9.1 50 4.44 -0.8 1013.1 0 10.9 20.7 25.8 67.1 50.5 169.9
08/05 01:10 9.2 49 4.38 -1 1013.1 0 10.8 20.6 25.6 66.4 49.7 167.2
08/05 01:00 9.4 48 4.34 -1 1013.1 0 10.7 20.5 25.4 65.9 49.1 165.1
08/05 00:50 9.5 47 4.28 -1.3 1013.1 0 10.5 20.4 25.1 65.2 48.4 162.4
08/05 00:40 9.7 46 4.24 -1.4 1013.1 0 10.5 20.3 24.9 64.7 47.8 160.4
08/05 00:20 10.3 42 4.02 -2.1 1013.1 0 10.0 19.8 24.0 62.2 44.9 150.2
08/05 00:10 10.6 41 4 -2.1 1013.1 0 9.9 19.7 23.8 61.8 44.5 148.9
08/05 00:00 11.1 39 3.93 -2.3 1013.1 0 9.8 19.5 23.5 60.7 43.4 145.2
07/05 23:50 11.1 39 3.93 -2.4 1013.1 0 9.8 19.5 23.5 60.7 43.4 145.2
07/05 23:40 9.7 46 4.24 -1.4 1013.1 0 10.5 20.3 24.9 64.7 47.8 160.4
07/05 23:30 9.2 49 4.38 -0.9 1013.1 0 10.8 20.6 25.6 66.4 49.7 167.2
07/05 23:20 9.5 48 4.37 -1 1013.1 0 10.7 20.5 25.5 66.1 49.4 166.1
07/05 23:10 9.5 48 4.37 -1 1013.1 0 10.7 20.5 25.5 66.1 49.4 166.1
07/05 23:00 8.9 51 4.47 -0.7 1013.1 0 11.0 20.8 26.0 67.6 51.0 171.6
07/05 22:50 9.2 50 4.47 -0.7 1013.1 0 11.0 20.7 25.9 67.3 50.8 170.9
07/05 22:40 9.1 50 4.44 -0.8 1013.1 0 10.9 20.7 25.8 67.1 50.5 169.9
07/05 22:30 9.5 48 4.37 -0.9 1013.1 0 10.7 20.5 25.5 66.1 49.4 166.1
07/05 22:20 9.7 47 4.33 -1.1 1013.1 0 10.6 20.4 25.3 65.6 48.8 164.1
07/05 22:10 9.8 47 4.36 -1 1013.1 0 10.7 20.4 25.3 65.8 49.1 165.1
07/05 22:00 9.9 45 4.2 -1.5 1013.1 0 10.4 20.2 24.7 64.2 47.2 158.3
07/05 21:50 9.9 46 4.3 -1.2 1013.1 0 10.6 20.3 25.1 65.1 48.4 162.4
07/05 21:40 10 45 4.23 -1.4 1013.1 0 10.4 20.2 24.8 64.4 47.5 159.4
07/05 21:30 10 45 4.23 -1.4 1013.1 0 10.4 20.2 24.8 64.4 47.5 159.4
07/05 21:20 10.3 43 4.12 -1.8 1013.1 0 10.2 20.0 24.3 63.1 46.0 154.3
07/05 21:10 10.5 42 4.07 -1.9 1013.1 0 10.1 19.9 24.1 62.5 45.3 151.9
07/05 21:00 10.7 41 4.03 -2 1013.1 0 10.0 19.8 23.9 62.0 44.8 149.9
07/05 20:50 10.8 40 3.95 -2.3 1013.1 0 9.8 19.6 23.6 61.1 43.8 146.5
07/05 20:40 11 39 3.9 -2.4 1013.1 0 9.7 19.5 23.4 60.5 43.1 144.2
07/05 20:30 11.3 38 3.88 -2.5 1013.1 0 9.6 19.4 23.2 60.1 42.8 142.9
07/05 20:20 11.6 36 3.74 -3 1013.1 0 9.3 19.2 22.7 58.6 41.0 136.8
07/05 20:10 11.9 34 3.6 -3.5 1013.1 0 9.0 18.9 22.1 57.2 39.3 130.9
07/05 20:00 12.3 33 3.58 -3.5 1013.1 0 9.0 18.8 22.0 56.7 38.9 129.4
07/05 19:50 12.4 33 3.61 -3.4 1013.1 0 9.0 18.8 22.0 56.9 39.2 130.5

Last Refresh: 08-May-2026 12:08:19

Bureau of Meteorology